Time;durP1;ratioP1;P1;durP2;ratioP2;P2;SDS_P1;SDS_P2;PMS_P1;PMS_P2;Temp;Humidity;BMP_temperature;BMP_pressure;BME280_temperature;BME280_humidity;BME280_pressure;Samples;Min_cycle;Max_cycle;Signal;HPM_P1;HPM_P2
2023/07/30 00:01:53;;;;;;;1.60;1.37;;;23.00;99.90;;;;;;5017321;28;20465;-81
2023/07/30 00:04:20;;;;;;;1.60;1.43;;;23.10;99.90;;;;;;5024285;28;20481;-80
2023/07/30 00:06:47;;;;;;;1.40;1.30;;;23.00;99.90;;;;;;5025888;28;20501;-81
2023/07/30 00:09:14;;;;;;;1.70;1.60;;;23.00;99.90;;;;;;5037752;28;20461;-82
2023/07/30 00:11:41;;;;;;;1.80;1.60;;;23.00;99.90;;;;;;5034298;28;20457;-82
2023/07/30 00:14:09;;;;;;;1.83;1.57;;;23.00;99.90;;;;;;5034586;28;20458;-82
2023/07/30 00:16:35;;;;;;;1.57;1.47;;;23.00;99.90;;;;;;5034789;28;20476;-82
2023/07/30 00:19:02;;;;;;;2.80;1.33;;;23.00;99.90;;;;;;5034778;28;20960;-82
2023/07/30 00:21:29;;;;;;;1.47;1.10;;;23.00;99.90;;;;;;5037265;28;20916;-81
2023/07/30 00:23:56;;;;;;;1.37;1.27;;;23.00;99.90;;;;;;5035883;28;20485;-82
2023/07/30 00:26:26;;;;;;;2.03;1.87;;;23.00;99.90;;;;;;5036205;28;20481;-82
2023/07/30 00:28:52;;;;;;;1.70;1.60;;;23.00;99.90;;;;;;5033001;28;20472;-82
2023/07/30 00:31:20;;;;;;;1.33;1.23;;;23.00;99.90;;;;;;5038149;28;20470;-82
2023/07/30 00:33:47;;;;;;;1.60;1.50;;;23.00;99.90;;;;;;5034327;28;20453;-82
2023/07/30 00:36:14;;;;;;;1.90;1.40;;;23.00;99.90;;;;;;5038178;28;20949;-82
2023/07/30 00:38:40;;;;;;;1.60;1.50;;;23.00;99.90;;;;;;5032466;28;20461;-81
2023/07/30 00:41:07;;;;;;;1.60;1.50;;;23.00;99.90;;;;;;5035378;28;20466;-82
2023/07/30 00:43:34;;;;;;;1.70;1.47;;;23.00;99.90;;;;;;5041162;28;20840;-82
2023/07/30 00:46:01;;;;;;;1.97;1.77;;;23.00;99.90;;;;;;5026017;28;20469;-82
2023/07/30 00:48:30;;;;;;;1.97;1.20;;;22.90;99.90;;;;;;5021227;28;20471;-82
2023/07/30 00:50:57;;;;;;;1.30;1.20;;;23.00;99.90;;;;;;5036424;28;20962;-82
2023/07/30 00:53:26;;;;;;;1.47;1.37;;;23.00;99.90;;;;;;5033150;28;20815;-82
2023/07/30 00:55:53;;;;;;;1.43;1.33;;;22.90;99.90;;;;;;5031017;28;20462;-82
2023/07/30 00:58:22;;;;;;;1.70;1.60;;;22.90;99.90;;;;;;5031157;28;20457;-81
2023/07/30 01:00:49;;;;;;;1.43;1.27;;;23.00;99.90;;;;;;5026210;28;20488;-82
2023/07/30 01:03:16;;;;;;;1.30;1.20;;;22.90;99.90;;;;;;5029769;28;20477;-82
2023/07/30 01:05:46;;;;;;;1.80;1.70;;;23.00;99.90;;;;;;5032055;28;20498;-80
2023/07/30 01:08:13;;;;;;;1.70;1.53;;;22.90;99.90;;;;;;5032292;28;20457;-82
2023/07/30 01:10:42;;;;;;;1.50;1.40;;;22.90;99.90;;;;;;5030960;28;21022;-81
2023/07/30 01:13:10;;;;;;;1.50;1.33;;;22.90;99.90;;;;;;5033823;28;20449;-82
2023/07/30 01:15:38;;;;;;;2.23;1.20;;;22.90;99.90;;;;;;5029635;28;20468;-82
2023/07/30 01:18:05;;;;;;;1.60;1.40;;;22.90;99.90;;;;;;5033039;28;20454;-82
2023/07/30 01:20:32;;;;;;;1.70;1.20;;;22.90;99.90;;;;;;5033053;28;20469;-81
2023/07/30 01:23:00;;;;;;;1.30;1.10;;;23.00;99.90;;;;;;5030929;28;20462;-81
2023/07/30 01:25:30;;;;;;;1.60;1.50;;;22.90;99.90;;;;;;5036419;28;20457;-82
2023/07/30 01:28:01;;;;;;;1.50;1.40;;;23.00;99.90;;;;;;5038822;28;21105;-82
2023/07/30 01:30:31;;;;;;;1.50;1.40;;;23.00;99.90;;;;;;5037168;28;20462;-82
2023/07/30 01:32:58;;;;;;;1.47;1.37;;;22.90;99.90;;;;;;5041301;28;20963;-81
2023/07/30 01:35:28;;;;;;;1.77;1.57;;;22.90;99.90;;;;;;5039931;28;20964;-81
2023/07/30 01:37:55;;;;;;;1.23;1.10;;;22.90;99.90;;;;;;5040191;28;20991;-81
2023/07/30 01:40:24;;;;;;;1.20;1.00;;;22.90;99.90;;;;;;5032672;28;21051;-81
2023/07/30 01:42:51;;;;;;;1.40;1.13;;;22.90;99.90;;;;;;5038802;28;20453;-81
2023/07/30 01:45:18;;;;;;;1.50;1.30;;;22.90;99.90;;;;;;5035236;28;21043;-81
2023/07/30 01:47:44;;;;;;;1.50;1.40;;;23.00;99.90;;;;;;5038758;28;20461;-81
2023/07/30 01:50:11;;;;;;;1.33;1.20;;;22.90;99.90;;;;;;5035827;28;20461;-81
2023/07/30 01:52:38;;;;;;;1.33;1.13;;;22.90;99.90;;;;;;5036985;28;20480;-81
2023/07/30 01:55:05;;;;;;;1.37;1.27;;;22.90;99.90;;;;;;5036496;28;20464;-82
2023/07/30 01:57:34;;;;;;;1.30;1.20;;;22.90;99.90;;;;;;5038193;28;20928;-82
2023/07/30 02:00:00;;;;;;;1.67;1.40;;;22.90;99.90;;;;;;5035348;28;20543;-83
2023/07/30 02:02:27;;;;;;;1.30;1.20;;;22.90;99.90;;;;;;5036504;28;20472;-82
2023/07/30 02:04:54;;;;;;;2.23;2.03;;;22.90;99.90;;;;;;5034211;28;20478;-82
2023/07/30 02:07:20;;;;;;;1.47;1.37;;;22.90;99.90;;;;;;5037502;28;20980;-81
2023/07/30 02:09:47;;;;;;;1.43;1.33;;;22.90;99.90;;;;;;5036416;28;20465;-82
2023/07/30 02:12:14;;;;;;;1.30;1.20;;;22.90;99.90;;;;;;5034852;28;20924;-79
2023/07/30 02:14:42;;;;;;;1.73;1.40;;;22.90;99.90;;;;;;5034548;28;20454;-79
2023/07/30 02:17:08;;;;;;;1.43;1.33;;;22.90;99.90;;;;;;5030825;28;20944;-79
2023/07/30 02:19:35;;;;;;;2.00;1.13;;;22.90;99.90;;;;;;5036094;28;20468;-79
2023/07/30 02:22:02;;;;;;;1.70;1.43;;;22.90;99.90;;;;;;5035379;28;20908;-79
2023/07/30 02:24:29;;;;;;;1.30;1.10;;;22.90;99.90;;;;;;5035990;28;21098;-79
2023/07/30 02:26:56;;;;;;;1.20;1.10;;;22.90;99.90;;;;;;5036521;28;20481;-80
2023/07/30 02:29:22;;;;;;;1.47;1.37;;;22.90;99.90;;;;;;5037960;28;20446;-79
2023/07/30 02:31:50;;;;;;;1.47;1.33;;;22.90;99.90;;;;;;5036444;28;20493;-79
2023/07/30 02:34:17;;;;;;;1.60;1.50;;;22.90;99.90;;;;;;5035886;28;20987;-79
2023/07/30 02:36:44;;;;;;;1.30;1.20;;;22.90;99.90;;;;;;5036361;28;20465;-76
2023/07/30 02:39:11;;;;;;;1.90;1.63;;;22.80;99.90;;;;;;5038194;28;20458;-77
2023/07/30 02:41:37;;;;;;;1.20;1.10;;;22.90;99.90;;;;;;5038060;28;20854;-76
2023/07/30 02:44:04;;;;;;;1.83;1.47;;;22.90;99.90;;;;;;5038581;28;20500;-77
2023/07/30 02:46:31;;;;;;;1.47;1.30;;;22.80;99.90;;;;;;5035921;28;20449;-77
2023/07/30 02:48:59;;;;;;;1.40;1.30;;;22.80;99.90;;;;;;5036861;28;20472;-80
2023/07/30 02:51:26;;;;;;;1.37;1.27;;;22.80;99.90;;;;;;5035467;28;20796;-80
2023/07/30 02:53:53;;;;;;;1.53;1.17;;;22.80;99.90;;;;;;5035230;28;20576;-80
2023/07/30 02:56:20;;;;;;;1.40;1.30;;;22.80;99.90;;;;;;5033458;28;20497;-80
2023/07/30 02:58:47;;;;;;;1.53;1.40;;;22.80;99.90;;;;;;5035959;28;20824;-80
2023/07/30 03:01:13;;;;;;;2.17;1.60;;;22.80;99.90;;;;;;5034021;28;20468;-81
2023/07/30 03:03:40;;;;;;;1.43;1.33;;;22.80;99.90;;;;;;5034272;28;20528;-80
2023/07/30 03:06:08;;;;;;;1.40;1.30;;;22.80;99.90;;;;;;5034423;28;20468;-80
2023/07/30 03:08:35;;;;;;;1.53;1.37;;;22.80;99.90;;;;;;5034654;28;20461;-80
2023/07/30 03:11:02;;;;;;;1.60;1.30;;;22.80;99.90;;;;;;5035641;28;20828;-80
2023/07/30 03:13:29;;;;;;;1.87;1.40;;;22.80;99.90;;;;;;5036168;28;21053;-81
2023/07/30 03:15:56;;;;;;;1.30;1.20;;;22.80;99.90;;;;;;5033838;28;20953;-80
2023/07/30 03:18:23;;;;;;;1.80;1.33;;;22.80;99.90;;;;;;5036434;28;20458;-80
2023/07/30 03:20:50;;;;;;;1.33;1.20;;;22.80;99.90;;;;;;5035993;28;20472;-81
2023/07/30 03:23:18;;;;;;;1.60;1.47;;;22.80;99.90;;;;;;5034906;28;20472;-80
2023/07/30 03:25:45;;;;;;;1.37;1.23;;;22.80;99.90;;;;;;5034406;28;20987;-80
2023/07/30 03:28:11;;;;;;;1.30;1.20;;;22.80;99.90;;;;;;5036776;28;20496;-78
2023/07/30 03:30:38;;;;;;;1.20;1.10;;;22.80;99.90;;;;;;5036348;28;20487;-80
2023/07/30 03:33:05;;;;;;;1.43;1.30;;;22.80;99.90;;;;;;5035571;28;20457;-81
2023/07/30 03:35:32;;;;;;;1.17;1.03;;;22.80;99.90;;;;;;5035363;28;21255;-80
2023/07/30 03:37:58;;;;;;;2.73;1.20;;;22.80;99.90;;;;;;5036991;28;20461;-80
2023/07/30 03:40:27;;;;;;;1.40;1.10;;;22.80;99.90;;;;;;5037880;28;20813;-80
2023/07/30 03:42:54;;;;;;;1.70;1.30;;;22.80;99.90;;;;;;5037185;28;20849;-81
2023/07/30 03:45:21;;;;;;;1.40;1.20;;;22.80;99.90;;;;;;5032972;28;20849;-80
2023/07/30 03:47:47;;;;;;;1.30;1.20;;;22.80;99.90;;;;;;5034267;28;20945;-80
2023/07/30 03:50:14;;;;;;;1.37;1.27;;;22.80;99.90;;;;;;5036707;28;20464;-80
2023/07/30 03:52:41;;;;;;;1.63;1.30;;;22.80;99.90;;;;;;5034959;28;20468;-80
2023/07/30 03:55:08;;;;;;;1.47;1.30;;;22.80;99.90;;;;;;5035402;28;20496;-80
2023/07/30 03:57:36;;;;;;;2.73;1.50;;;22.80;99.90;;;;;;5036006;28;20499;-80
2023/07/30 04:00:04;;;;;;;1.30;1.20;;;22.80;99.90;;;;;;5031840;28;20824;-80
2023/07/30 04:02:30;;;;;;;1.33;1.17;;;22.80;99.90;;;;;;5034563;28;20462;-81
2023/07/30 04:04:57;;;;;;;2.03;1.60;;;22.80;99.90;;;;;;5034758;28;21495;-80
2023/07/30 04:07:24;;;;;;;1.43;1.33;;;22.80;99.90;;;;;;5033933;28;20465;-81
2023/07/30 04:09:51;;;;;;;1.50;1.27;;;22.80;99.90;;;;;;5035604;28;20467;-81
2023/07/30 04:12:19;;;;;;;1.67;1.40;;;22.70;99.90;;;;;;5037881;28;20463;-80
2023/07/30 04:14:47;;;;;;;1.17;1.00;;;22.80;99.90;;;;;;5034533;28;21079;-80
2023/07/30 04:17:13;;;;;;;1.70;1.43;;;22.80;99.90;;;;;;5036126;28;20462;-80
2023/07/30 04:19:40;;;;;;;1.87;1.40;;;22.70;99.90;;;;;;5037140;28;20461;-80
2023/07/30 04:22:07;;;;;;;1.40;1.20;;;22.70;99.90;;;;;;5035200;28;20469;-80
2023/07/30 04:24:33;;;;;;;1.40;1.13;;;22.80;99.90;;;;;;5034629;28;20481;-80
2023/07/30 04:27:01;;;;;;;1.30;1.10;;;22.70;99.90;;;;;;5034757;28;20848;-80
2023/07/30 04:29:28;;;;;;;1.37;1.27;;;22.80;99.90;;;;;;5037826;28;21064;-80
2023/07/30 04:31:57;;;;;;;1.13;1.03;;;22.70;99.90;;;;;;5031450;28;20462;-81
2023/07/30 04:34:23;;;;;;;1.40;1.00;;;22.70;99.90;;;;;;5033928;28;20453;-81
2023/07/30 04:36:50;;;;;;;2.23;1.50;;;22.70;99.90;;;;;;5034709;28;21065;-80
2023/07/30 04:39:17;;;;;;;1.40;1.30;;;22.70;99.90;;;;;;5035804;28;20461;-80
2023/07/30 04:41:43;;;;;;;1.50;1.30;;;22.70;99.90;;;;;;5033279;28;20464;-80
2023/07/30 04:44:10;;;;;;;1.40;1.30;;;22.70;99.90;;;;;;5034181;28;20465;-80
2023/07/30 04:46:37;;;;;;;1.40;1.30;;;22.70;99.90;;;;;;5027957;28;20863;-80
2023/07/30 04:49:05;;;;;;;1.53;1.43;;;22.70;99.90;;;;;;5035385;28;20489;-80
2023/07/30 04:51:32;;;;;;;1.97;1.13;;;22.70;99.90;;;;;;5035459;28;20924;-80
2023/07/30 04:53:58;;;;;;;2.60;1.30;;;22.70;99.90;;;;;;5033720;28;20481;-81
2023/07/30 04:56:26;;;;;;;4.13;1.27;;;22.70;99.90;;;;;;5033447;28;20952;-80
2023/07/30 04:58:53;;;;;;;1.20;1.00;;;22.70;99.90;;;;;;5035385;28;20456;-80
2023/07/30 05:01:19;;;;;;;1.27;1.17;;;22.70;99.90;;;;;;5037824;28;20956;-80
2023/07/30 05:03:46;;;;;;;1.70;1.60;;;22.70;99.90;;;;;;5040487;28;20495;-80
2023/07/30 05:06:14;;;;;;;1.57;1.47;;;22.70;99.90;;;;;;5038679;28;20948;-80
2023/07/30 05:08:41;;;;;;;1.37;1.27;;;22.70;99.90;;;;;;5038680;28;20460;-80
2023/07/30 05:11:08;;;;;;;1.23;1.13;;;22.70;99.90;;;;;;5038281;28;20737;-80
2023/07/30 05:13:34;;;;;;;1.43;1.20;;;22.70;99.90;;;;;;5041769;28;20497;-80
2023/07/30 05:16:01;;;;;;;1.33;1.23;;;22.70;99.90;;;;;;5033960;28;20453;-80
2023/07/30 05:18:28;;;;;;;1.60;1.50;;;22.70;99.90;;;;;;5020893;28;20889;-80
2023/07/30 05:20:55;;;;;;;1.50;1.30;;;22.70;99.90;;;;;;5033388;28;20484;-80
2023/07/30 05:23:23;;;;;;;2.00;1.33;;;22.70;99.90;;;;;;5040781;28;20461;-81
2023/07/30 05:25:50;;;;;;;1.43;1.33;;;22.70;99.90;;;;;;5036924;28;20485;-80
2023/07/30 05:28:17;;;;;;;1.90;1.70;;;22.70;99.90;;;;;;5040456;28;21122;-80
2023/07/30 05:30:44;;;;;;;1.93;1.30;;;22.70;99.90;;;;;;5037363;28;20457;-80
2023/07/30 05:33:11;;;;;;;1.73;1.63;;;22.70;99.90;;;;;;5040298;28;20458;-80
2023/07/30 05:35:38;;;;;;;1.40;1.30;;;22.70;99.90;;;;;;5039364;28;20947;-80
2023/07/30 05:38:04;;;;;;;1.30;1.20;;;22.70;99.90;;;;;;5041918;28;20836;-80
2023/07/30 05:40:33;;;;;;;1.30;1.20;;;22.70;99.90;;;;;;5041809;28;20461;-80
2023/07/30 05:43:00;;;;;;;1.40;1.30;;;22.70;99.90;;;;;;5042110;28;20461;-80
2023/07/30 05:45:27;;;;;;;1.60;1.50;;;22.70;99.90;;;;;;5039346;28;20949;-80
2023/07/30 05:47:54;;;;;;;1.37;1.00;;;22.70;99.90;;;;;;5039869;28;20464;-80
2023/07/30 05:50:20;;;;;;;1.37;1.23;;;22.70;99.90;;;;;;5039067;28;20800;-80
2023/07/30 05:52:47;;;;;;;1.90;1.60;;;22.70;99.90;;;;;;5039192;28;20465;-80
2023/07/30 05:55:14;;;;;;;1.40;1.27;;;22.60;99.90;;;;;;5040715;28;20976;-80
2023/07/30 05:57:42;;;;;;;1.70;1.40;;;22.60;99.90;;;;;;5041383;28;20982;-80
2023/07/30 06:00:09;;;;;;;1.50;1.20;;;22.70;99.90;;;;;;5039420;28;21116;-80
2023/07/30 06:02:36;;;;;;;1.30;1.20;;;22.60;99.90;;;;;;5035521;28;20465;-80
2023/07/30 06:05:03;;;;;;;1.10;0.90;;;22.70;99.90;;;;;;5035565;28;21286;-80
2023/07/30 06:07:30;;;;;;;1.40;1.30;;;22.60;99.90;;;;;;5037884;28;20464;-80
2023/07/30 06:09:57;;;;;;;1.10;1.00;;;22.60;99.90;;;;;;5040297;28;20928;-79
2023/07/30 06:12:23;;;;;;;2.27;1.67;;;22.60;99.90;;;;;;5034772;28;20468;-79
2023/07/30 06:14:51;;;;;;;1.50;1.10;;;22.70;99.90;;;;;;5031769;28;20457;-79
2023/07/30 06:17:18;;;;;;;2.07;1.47;;;22.60;99.90;;;;;;5037757;28;20453;-80
2023/07/30 06:19:45;;;;;;;1.37;1.27;;;22.60;99.90;;;;;;5038360;28;20941;-80
2023/07/30 06:22:11;;;;;;;2.23;1.17;;;22.60;99.90;;;;;;5033229;28;20465;-80
2023/07/30 06:24:38;;;;;;;1.27;1.00;;;22.70;99.90;;;;;;5037803;28;20464;-80
2023/07/30 06:27:06;;;;;;;1.27;1.17;;;22.60;99.90;;;;;;5038532;28;20864;-79
2023/07/30 06:29:32;;;;;;;1.57;1.40;;;22.60;99.90;;;;;;5041150;28;20460;-80
2023/07/30 06:32:00;;;;;;;1.57;1.40;;;22.60;99.90;;;;;;5036135;28;21097;-80
2023/07/30 06:34:27;;;;;;;2.73;1.10;;;22.60;99.90;;;;;;5013501;28;20861;-80
2023/07/30 06:36:54;;;;;;;1.20;1.07;;;22.60;99.90;;;;;;5036572;28;20457;-80
2023/07/30 06:39:21;;;;;;;1.60;1.50;;;22.60;99.90;;;;;;5038518;28;21204;-80
2023/07/30 06:41:48;;;;;;;1.73;1.37;;;22.60;99.90;;;;;;5033611;28;20924;-80
2023/07/30 06:44:15;;;;;;;1.50;1.37;;;22.60;99.90;;;;;;5034722;28;20466;-80
2023/07/30 06:46:42;;;;;;;1.20;1.10;;;22.60;99.90;;;;;;5033402;28;20959;-80
2023/07/30 06:49:10;;;;;;;1.90;1.50;;;22.60;99.90;;;;;;5032947;28;20959;-80
2023/07/30 06:51:36;;;;;;;1.20;1.00;;;22.60;99.90;;;;;;5032385;28;20473;-81
2023/07/30 06:54:03;;;;;;;1.47;1.37;;;22.60;99.90;;;;;;5032585;28;21421;-80
2023/07/30 06:56:30;;;;;;;1.33;1.20;;;22.60;99.90;;;;;;5032800;28;20500;-81
2023/07/30 06:58:57;;;;;;;1.70;1.60;;;22.60;99.90;;;;;;5034256;28;20449;-81
2023/07/30 07:01:24;;;;;;;1.30;1.20;;;22.60;99.90;;;;;;5032671;28;20464;-81
2023/07/30 07:03:50;;;;;;;1.73;1.20;;;22.60;99.90;;;;;;5034479;28;21038;-80
2023/07/30 07:06:18;;;;;;;1.30;1.20;;;22.60;99.90;;;;;;5033403;28;20481;-80
2023/07/30 07:08:45;;;;;;;1.53;1.43;;;22.60;99.90;;;;;;5030148;28;20687;-79
2023/07/30 07:11:12;;;;;;;1.60;1.40;;;22.60;99.90;;;;;;5034604;28;20457;-80
2023/07/30 07:13:39;;;;;;;1.43;1.30;;;22.60;99.90;;;;;;5036674;28;20453;-80
2023/07/30 07:16:06;;;;;;;4.00;1.63;;;22.60;99.90;;;;;;5033037;28;20844;-79
2023/07/30 07:18:32;;;;;;;2.23;1.60;;;22.60;99.90;;;;;;5028743;28;20469;-79
2023/07/30 07:20:59;;;;;;;4.53;3.03;;;22.60;99.90;;;;;;5034405;28;21981;-78
2023/07/30 07:23:27;;;;;;;6.77;4.60;;;22.60;99.90;;;;;;5032944;28;21055;-79
2023/07/30 07:25:54;;;;;;;9.63;4.30;;;22.60;99.90;;;;;;5032384;28;20835;-79
2023/07/30 07:28:21;;;;;;;6.53;4.20;;;22.50;99.90;;;;;;5037527;28;20474;-81
2023/07/30 07:30:47;;;;;;;10.70;5.37;;;22.50;99.90;;;;;;5037024;28;20468;-82
2023/07/30 07:33:14;;;;;;;9.90;5.50;;;22.50;99.90;;;;;;5037303;28;20461;-81
2023/07/30 07:35:41;;;;;;;8.23;5.90;;;22.50;99.90;;;;;;5030410;28;20454;-83
2023/07/30 07:38:08;;;;;;;10.33;6.07;;;22.40;99.90;;;;;;5030566;28;20464;-83
2023/07/30 07:40:40;;;;;;;11.40;6.17;;;22.40;99.90;;;;;;5034867;28;21220;-83
2023/07/30 07:43:07;;;;;;;9.30;6.90;;;22.30;99.90;;;;;;5037487;28;20830;-83
2023/07/30 07:45:33;;;;;;;12.47;6.77;;;22.40;99.90;;;;;;5033689;28;20496;-82
2023/07/30 07:48:00;;;;;;;11.87;7.40;;;22.30;99.90;;;;;;5037400;28;20904;-82
2023/07/30 07:50:27;;;;;;;14.23;7.77;;;22.30;99.90;;;;;;5035245;28;20464;-82
2023/07/30 07:52:53;;;;;;;8.87;7.00;;;22.30;99.90;;;;;;5037298;28;20462;-82
2023/07/30 07:55:20;;;;;;;10.73;8.10;;;22.30;99.90;;;;;;5036766;28;20739;-81
2023/07/30 07:57:48;;;;;;;7.30;6.67;;;22.40;99.90;;;;;;5037276;28;20472;-82
2023/07/30 08:00:15;;;;;;;10.43;6.67;;;22.30;99.90;;;;;;5032010;28;20975;-82
2023/07/30 08:02:42;;;;;;;9.47;6.33;;;22.30;99.90;;;;;;5032142;28;20492;-82
2023/07/30 08:05:09;;;;;;;6.93;5.87;;;22.30;99.90;;;;;;5031521;28;20465;-82
2023/07/30 08:07:35;;;;;;;10.70;6.63;;;22.30;99.90;;;;;;5030583;28;20494;-82
2023/07/30 08:10:02;;;;;;;8.43;6.40;;;22.40;99.90;;;;;;5031549;28;20461;-82
2023/07/30 08:12:29;;;;;;;7.27;5.40;;;22.40;99.90;;;;;;5031096;28;20465;-83
2023/07/30 08:14:58;;;;;;;6.30;5.70;;;22.40;99.90;;;;;;5030527;28;20976;-82
2023/07/30 08:17:25;;;;;;;11.23;6.00;;;22.40;99.90;;;;;;5027127;28;20534;-82
2023/07/30 08:19:52;;;;;;;8.70;5.80;;;22.40;99.90;;;;;;5030408;28;20472;-82
2023/07/30 08:22:19;;;;;;;12.20;7.00;;;22.40;99.90;;;;;;5031310;28;20469;-82
2023/07/30 08:24:45;;;;;;;7.53;5.60;;;22.40;99.90;;;;;;5031329;28;20462;-82
2023/07/30 08:27:12;;;;;;;8.97;5.20;;;22.40;99.90;;;;;;5027631;28;20489;-82
2023/07/30 08:29:39;;;;;;;7.17;5.03;;;22.40;99.90;;;;;;5030744;28;20465;-82
2023/07/30 08:32:07;;;;;;;7.43;5.37;;;22.40;99.90;;;;;;5028418;28;20746;-82
2023/07/30 08:34:34;;;;;;;8.37;5.00;;;22.40;99.90;;;;;;5033032;28;20458;-82
2023/07/30 08:37:00;;;;;;;8.87;6.50;;;22.40;99.90;;;;;;5030063;28;20453;-84
2023/07/30 08:39:27;;;;;;;15.13;6.30;;;22.40;99.90;;;;;;5033991;28;20461;-83
2023/07/30 08:41:54;;;;;;;9.50;5.60;;;22.40;99.90;;;;;;5032267;28;20840;-83
2023/07/30 08:44:21;;;;;;;8.90;5.70;;;22.30;99.90;;;;;;5030761;28;20457;-83
2023/07/30 08:46:48;;;;;;;12.47;5.07;;;22.30;99.90;;;;;;5027226;28;20865;-83
2023/07/30 08:49:16;;;;;;;10.10;6.13;;;22.30;99.90;;;;;;5029763;28;20454;-84
2023/07/30 08:51:43;;;;;;;12.53;5.50;;;22.30;99.90;;;;;;5032989;28;20452;-83
2023/07/30 08:54:13;;;;;;;12.43;5.73;;;22.20;99.90;;;;;;5032335;28;20457;-84
2023/07/30 08:56:40;;;;;;;10.00;6.07;;;22.20;99.90;;;;;;5034138;28;20457;-84
2023/07/30 08:59:07;;;;;;;8.47;5.67;;;22.20;99.90;;;;;;5029748;28;20469;-83
2023/07/30 09:01:38;;;;;;;10.23;6.97;;;22.20;99.90;;;;;;5028411;28;20473;-83
2023/07/30 09:04:08;;;;;;;10.10;5.50;;;22.20;99.90;;;;;;5030157;28;20809;-83
2023/07/30 09:06:38;;;;;;;9.70;5.00;;;22.20;99.90;;;;;;5027368;28;20564;-81
2023/07/30 09:09:05;;;;;;;5.97;4.30;;;22.20;99.90;;;;;;5033904;28;20836;-80
2023/07/30 09:11:32;;;;;;;9.80;5.13;;;22.20;99.90;;;;;;5032295;28;20523;-80
2023/07/30 09:14:02;;;;;;;8.27;4.60;;;22.20;99.90;;;;;;5032072;28;20467;-77
2023/07/30 09:16:29;;;;;;;9.80;5.17;;;22.30;99.90;;;;;;5035653;28;20964;-80
2023/07/30 09:18:55;;;;;;;14.13;6.17;;;22.20;99.90;;;;;;5027433;28;20707;-80
2023/07/30 09:21:30;;;;;;;9.10;4.47;;;22.20;99.90;;;;;;5033556;28;20472;-80
2023/07/30 09:24:05;;;;;;;9.07;4.70;;;22.20;99.90;;;;;;5034160;28;21510;-82
2023/07/30 09:26:40;;;;;;;6.80;4.27;;;22.20;99.90;;;;;;5035396;28;20526;-83
2023/07/30 09:29:08;;;;;;;6.53;4.90;;;22.20;99.90;;;;;;5035807;28;20891;-78
2023/07/30 09:31:47;;;;;;;8.43;4.17;;;22.20;99.90;;;;;;5031163;28;21191;-78
2023/07/30 09:34:17;;;;;;;8.87;6.17;;;22.10;99.90;;;;;;5038369;28;20484;-82
2023/07/30 09:36:45;;;;;;;11.03;4.93;;;22.10;99.90;;;;;;5038363;28;20519;-81
2023/07/30 09:39:18;;;;;;;9.30;4.60;;;22.10;99.90;;;;;;5036357;28;20469;-81
2023/07/30 09:41:45;;;;;;;7.57;4.60;;;22.10;99.90;;;;;;5035510;28;20453;-81
2023/07/30 09:44:12;;;;;;;7.90;4.27;;;22.10;99.90;;;;;;5036174;28;20977;-81
2023/07/30 09:46:43;;;;;;;6.60;3.87;;;22.10;99.90;;;;;;5037057;28;20484;-81
2023/07/30 09:49:10;;;;;;;6.33;4.30;;;22.20;99.90;;;;;;5041577;28;20457;-81
2023/07/30 09:51:38;;;;;;;10.33;4.37;;;22.20;99.90;;;;;;5039986;28;20465;-80
2023/07/30 09:54:06;;;;;;;5.90;3.73;;;22.20;99.90;;;;;;5035971;28;21157;-80
2023/07/30 09:56:34;;;;;;;4.67;3.93;;;22.20;99.90;;;;;;5036435;28;20968;-81
2023/07/30 09:59:01;;;;;;;4.70;3.60;;;22.20;99.90;;;;;;5040741;28;20827;-81
2023/07/30 10:01:30;;;;;;;5.07;3.80;;;22.20;99.90;;;;;;5036273;28;20476;-81
2023/07/30 10:03:58;;;;;;;10.53;3.67;;;22.20;99.90;;;;;;5038503;28;20457;-81
2023/07/30 10:06:28;;;;;;;4.13;3.47;;;22.20;99.90;;;;;;5036444;28;20507;-81
2023/07/30 10:08:59;;;;;;;8.67;4.93;;;22.20;99.90;;;;;;5033955;28;20578;-81
2023/07/30 10:11:28;;;;;;;5.67;4.03;;;22.20;99.90;;;;;;5037078;28;20464;-81
2023/07/30 10:13:57;;;;;;;7.37;4.40;;;22.20;99.90;;;;;;5032056;28;21411;-81
2023/07/30 10:16:27;;;;;;;10.00;5.17;;;22.20;99.90;;;;;;5038682;28;20461;-81
2023/07/30 10:18:57;;;;;;;5.77;4.53;;;22.20;99.90;;;;;;5039337;28;20469;-81
2023/07/30 10:21:26;;;;;;;4.53;3.53;;;22.20;99.90;;;;;;5041523;28;20898;-79
2023/07/30 10:24:00;;;;;;;5.90;3.77;;;22.20;99.90;;;;;;5035347;28;20471;-87
2023/07/30 10:26:29;;;;;;;6.67;4.70;;;22.20;99.90;;;;;;5052006;28;20488;-86
2023/07/30 10:29:12;;;;;;;7.10;4.13;;;22.20;99.90;;;;;;5047373;28;20874;-89
2023/07/30 10:31:40;;;;;;;3.93;2.90;;;22.20;99.90;;;;;;5048214;28;20544;-90
2023/07/30 10:34:09;;;;;;;5.27;3.87;;;22.30;99.90;;;;;;5045923;28;20508;-91
2023/07/30 10:36:44;;;;;;;8.83;4.87;;;22.30;99.90;;;;;;5043483;28;20530;-92
2023/07/30 10:39:16;;;;;;;6.10;3.20;;;22.30;99.90;;;;;;5041423;28;20479;-88
2023/07/30 10:41:45;;;;;;;8.63;3.10;;;22.30;99.90;;;;;;5044950;28;20461;-91
2023/07/30 10:44:27;;;;;;;9.40;3.80;;;22.30;99.90;;;;;;5045198;28;20465;-94
2023/07/30 10:46:55;;;;;;;4.30;3.20;;;22.40;99.90;;;;;;5045485;28;20987;-89
2023/07/30 10:49:22;;;;;;;10.47;4.37;;;22.40;99.90;;;;;;5047189;28;20872;-89
2023/07/30 10:51:49;;;;;;;8.63;3.47;;;22.30;99.90;;;;;;5045144;28;20457;-90
2023/07/30 10:54:16;;;;;;;11.47;4.07;;;22.30;99.90;;;;;;5047731;28;20465;-91
2023/07/30 10:56:44;;;;;;;4.40;2.90;;;22.30;99.90;;;;;;5047872;28;20456;-90
2023/07/30 10:59:13;;;;;;;4.20;2.70;;;22.40;99.90;;;;;;5050518;28;20455;-90
2023/07/30 11:01:43;;;;;;;10.73;2.97;;;22.40;99.90;;;;;;5050650;28;20472;-89
2023/07/30 11:04:11;;;;;;;4.87;2.50;;;22.40;99.90;;;;;;5048463;28;20449;-85
2023/07/30 11:06:38;;;;;;;5.00;2.23;;;22.40;99.90;;;;;;5051325;28;20958;-87
2023/07/30 11:09:06;;;;;;;3.40;2.90;;;22.40;99.90;;;;;;5051553;28;20457;-91
2023/07/30 11:11:34;;;;;;;8.27;2.97;;;22.40;99.90;;;;;;5054985;28;20458;-89
2023/07/30 11:14:01;;;;;;;5.43;2.40;;;22.40;99.90;;;;;;5051847;28;20581;-88
2023/07/30 11:16:28;;;;;;;4.63;2.70;;;22.50;99.90;;;;;;5049276;28;20470;-86
2023/07/30 11:18:56;;;;;;;4.13;2.77;;;22.40;99.90;;;;;;5051118;28;20457;-85
2023/07/30 11:21:23;;;;;;;4.30;2.33;;;22.40;99.90;;;;;;5051789;28;20861;-84
2023/07/30 11:23:52;;;;;;;3.73;2.50;;;22.50;99.90;;;;;;5053447;28;20527;-84
2023/07/30 11:26:20;;;;;;;8.40;3.10;;;22.50;99.90;;;;;;5048896;28;20576;-85
2023/07/30 11:28:47;;;;;;;8.97;2.50;;;22.50;99.90;;;;;;5053215;28;20465;-84
2023/07/30 11:31:20;;;;;;;4.90;2.50;;;22.50;99.80;;;;;;5054419;28;20652;-85
2023/07/30 11:33:48;;;;;;;3.60;2.33;;;22.50;99.60;;;;;;5050929;28;20514;-84
2023/07/30 11:36:18;;;;;;;5.80;2.20;;;22.50;99.30;;;;;;5051684;28;20468;-85
2023/07/30 11:38:46;;;;;;;6.33;3.37;;;22.50;99.10;;;;;;5049968;28;20453;-84
2023/07/30 11:41:14;;;;;;;6.80;3.07;;;22.50;98.90;;;;;;5051753;28;20466;-85
2023/07/30 11:43:43;;;;;;;4.63;2.37;;;22.50;98.80;;;;;;5051133;28;20812;-87
2023/07/30 11:46:13;;;;;;;5.20;1.80;;;22.50;98.80;;;;;;5050893;28;20449;-88
2023/07/30 11:48:41;;;;;;;6.17;2.27;;;22.60;98.80;;;;;;5048622;28;20492;-87
2023/07/30 11:51:10;;;;;;;2.87;2.10;;;22.60;98.80;;;;;;5052088;28;20513;-88
2023/07/30 11:53:49;;;;;;;4.90;2.10;;;22.60;98.80;;;;;;5048945;28;20818;-86
2023/07/30 11:56:26;;;;;;;4.27;1.90;;;22.60;98.80;;;;;;5053201;28;20524;-86
2023/07/30 11:58:56;;;;;;;6.07;2.30;;;22.60;98.70;;;;;;5052074;28;20836;-87
2023/07/30 12:01:26;;;;;;;3.57;1.67;;;22.60;98.50;;;;;;5051884;28;20518;-85
2023/07/30 12:03:55;;;;;;;4.67;1.70;;;22.70;98.40;;;;;;5052495;28;21038;-85
2023/07/30 12:06:22;;;;;;;8.50;2.40;;;22.70;98.10;;;;;;5044531;28;20453;-87
2023/07/30 12:08:51;;;;;;;4.53;2.30;;;22.70;97.90;;;;;;5046686;28;20492;-86
2023/07/30 12:11:19;;;;;;;6.00;2.00;;;22.70;97.80;;;;;;5048863;28;20474;-87
2023/07/30 12:13:46;;;;;;;5.00;1.70;;;22.70;97.80;;;;;;5046084;28;20453;-87
2023/07/30 12:16:14;;;;;;;5.93;2.10;;;22.70;97.70;;;;;;5050114;28;21156;-86
2023/07/30 12:18:42;;;;;;;9.83;2.97;;;22.70;97.60;;;;;;5048715;28;20461;-90
2023/07/30 12:21:11;;;;;;;4.43;2.33;;;22.70;97.30;;;;;;5044941;28;20445;-90
2023/07/30 12:23:39;;;;;;;4.23;2.20;;;22.70;97.30;;;;;;5048313;28;20484;-89
2023/07/30 12:26:07;;;;;;;6.30;2.10;;;22.70;97.10;;;;;;5050203;28;20428;-90
2023/07/30 12:28:34;;;;;;;7.20;1.93;;;22.70;97.20;;;;;;5046285;28;20540;-90
2023/07/30 12:31:01;;;;;;;4.13;1.60;;;22.80;97.00;;;;;;5048272;28;20452;-89
2023/07/30 12:33:28;;;;;;;3.60;1.80;;;22.70;96.80;;;;;;5042708;28;20489;-88
2023/07/30 12:35:54;;;;;;;3.70;2.10;;;22.70;96.60;;;;;;5038743;28;20449;-87
2023/07/30 12:38:21;;;;;;;4.50;1.97;;;22.80;97.30;;;;;;5038939;28;20481;-83
2023/07/30 12:40:48;;;;;;;4.53;1.70;;;22.80;97.20;;;;;;5035915;28;20458;-83
2023/07/30 12:43:18;;;;;;;5.73;1.60;;;22.80;97.30;;;;;;5043381;28;20569;-84
2023/07/30 12:45:45;;;;;;;3.73;1.83;;;22.90;97.50;;;;;;5036502;28;20490;-85
2023/07/30 12:48:12;;;;;;;6.97;2.10;;;22.90;97.60;;;;;;5042134;28;21016;-83